sensor_id;sensor_type;location;lat;lon;timestamp;temperature;humidity
48744;DHT22;34538;48.836;9.174;2023-03-31T00:01:13;11.90;99.90
48744;DHT22;34538;48.836;9.174;2023-03-31T00:03:39;11.90;99.90
48744;DHT22;34538;48.836;9.174;2023-03-31T00:06:09;11.90;99.90
48744;DHT22;34538;48.836;9.174;2023-03-31T00:08:37;11.90;99.90
48744;DHT22;34538;48.836;9.174;2023-03-31T00:11:06;11.80;99.90
48744;DHT22;34538;48.836;9.174;2023-03-31T00:13:33;11.80;99.90
48744;DHT22;34538;48.836;9.174;2023-03-31T00:16:02;11.80;99.90
48744;DHT22;34538;48.836;9.174;2023-03-31T00:18:29;11.70;99.90
48744;DHT22;34538;48.836;9.174;2023-03-31T00:21:05;11.70;99.90
48744;DHT22;34538;48.836;9.174;2023-03-31T00:23:32;11.80;99.90
48744;DHT22;34538;48.836;9.174;2023-03-31T00:26:00;11.70;99.90
48744;DHT22;34538;48.836;9.174;2023-03-31T00:28:28;11.70;99.90
48744;DHT22;34538;48.836;9.174;2023-03-31T00:30:59;11.60;99.90
48744;DHT22;34538;48.836;9.174;2023-03-31T00:33:26;11.60;99.90
48744;DHT22;34538;48.836;9.174;2023-03-31T00:35:54;11.60;99.90
48744;DHT22;34538;48.836;9.174;2023-03-31T00:38:22;11.50;99.90
48744;DHT22;34538;48.836;9.174;2023-03-31T00:40:49;11.50;99.90
48744;DHT22;34538;48.836;9.174;2023-03-31T00:43:25;11.50;99.90
48744;DHT22;34538;48.836;9.174;2023-03-31T00:45:57;11.50;99.90
48744;DHT22;34538;48.836;9.174;2023-03-31T00:48:27;11.40;99.90
48744;DHT22;34538;48.836;9.174;2023-03-31T00:50:55;11.30;99.90
48744;DHT22;34538;48.836;9.174;2023-03-31T00:53:25;11.30;99.90
48744;DHT22;34538;48.836;9.174;2023-03-31T00:55:54;11.30;99.90
48744;DHT22;34538;48.836;9.174;2023-03-31T00:58:24;11.30;99.90
48744;DHT22;34538;48.836;9.174;2023-03-31T01:00:56;11.30;99.90
48744;DHT22;34538;48.836;9.174;2023-03-31T01:03:23;11.30;99.90
48744;DHT22;34538;48.836;9.174;2023-03-31T01:05:53;11.30;99.90
48744;DHT22;34538;48.836;9.174;2023-03-31T01:08:23;11.30;99.90
48744;DHT22;34538;48.836;9.174;2023-03-31T01:10:54;11.40;99.90
48744;DHT22;34538;48.836;9.174;2023-03-31T01:13:22;11.50;99.90
48744;DHT22;34538;48.836;9.174;2023-03-31T01:15:50;11.60;99.90
48744;DHT22;34538;48.836;9.174;2023-03-31T01:18:19;11.70;99.90
48744;DHT22;34538;48.836;9.174;2023-03-31T01:24:04;12.00;99.90
48744;DHT22;34538;48.836;9.174;2023-03-31T01:26:47;12.00;99.90
48744;DHT22;34538;48.836;9.174;2023-03-31T01:35:35;12.30;99.90
48744;DHT22;34538;48.836;9.174;2023-03-31T01:38:32;12.30;99.90
48744;DHT22;34538;48.836;9.174;2023-03-31T01:41:29;12.40;99.90
48744;DHT22;34538;48.836;9.174;2023-03-31T01:44:04;12.40;99.90
48744;DHT22;34538;48.836;9.174;2023-03-31T01:46:34;12.40;99.90
48744;DHT22;34538;48.836;9.174;2023-03-31T01:49:09;12.40;99.90
48744;DHT22;34538;48.836;9.174;2023-03-31T01:51:44;12.50;99.90
48744;DHT22;34538;48.836;9.174;2023-03-31T01:54:19;12.50;99.90
48744;DHT22;34538;48.836;9.174;2023-03-31T01:56:53;12.50;99.90
48744;DHT22;34538;48.836;9.174;2023-03-31T01:59:26;12.60;99.90
48744;DHT22;34538;48.836;9.174;2023-03-31T02:01:57;12.70;99.90
48744;DHT22;34538;48.836;9.174;2023-03-31T02:04:29;12.70;99.90
48744;DHT22;34538;48.836;9.174;2023-03-31T02:07:00;12.70;99.90
48744;DHT22;34538;48.836;9.174;2023-03-31T02:09:31;12.70;99.90
48744;DHT22;34538;48.836;9.174;2023-03-31T02:12:01;12.70;99.90
48744;DHT22;34538;48.836;9.174;2023-03-31T02:14:30;12.70;99.90
48744;DHT22;34538;48.836;9.174;2023-03-31T02:16:58;12.70;99.90
48744;DHT22;34538;48.836;9.174;2023-03-31T02:19:31;12.70;99.90
48744;DHT22;34538;48.836;9.174;2023-03-31T02:22:00;12.70;99.90
48744;DHT22;34538;48.836;9.174;2023-03-31T02:24:30;12.60;99.90
48744;DHT22;34538;48.836;9.174;2023-03-31T02:27:04;12.60;99.90
48744;DHT22;34538;48.836;9.174;2023-03-31T02:29:33;12.50;99.90
48744;DHT22;34538;48.836;9.174;2023-03-31T02:32:03;12.50;99.90
48744;DHT22;34538;48.836;9.174;2023-03-31T02:34:34;12.40;99.90
48744;DHT22;34538;48.836;9.174;2023-03-31T02:37:02;12.30;99.90
48744;DHT22;34538;48.836;9.174;2023-03-31T02:39:31;12.20;99.90
48744;DHT22;34538;48.836;9.174;2023-03-31T02:42:01;12.10;99.90
48744;DHT22;34538;48.836;9.174;2023-03-31T02:44:31;12.10;99.90
48744;DHT22;34538;48.836;9.174;2023-03-31T02:46:58;12.00;99.90
48744;DHT22;34538;48.836;9.174;2023-03-31T02:49:26;12.00;99.90
48744;DHT22;34538;48.836;9.174;2023-03-31T02:52:27;11.90;99.90
48744;DHT22;34538;48.836;9.174;2023-03-31T02:55:23;11.90;99.90
48744;DHT22;34538;48.836;9.174;2023-03-31T02:58:26;11.90;99.90
48744;DHT22;34538;48.836;9.174;2023-03-31T03:01:08;11.90;99.90
48744;DHT22;34538;48.836;9.174;2023-03-31T03:03:44;11.80;99.90
48744;DHT22;34538;48.836;9.174;2023-03-31T03:06:20;11.80;99.90
48744;DHT22;34538;48.836;9.174;2023-03-31T03:09:00;11.80;99.90
48744;DHT22;34538;48.836;9.174;2023-03-31T03:11:37;11.80;99.90
48744;DHT22;34538;48.836;9.174;2023-03-31T03:14:11;11.70;99.90
48744;DHT22;34538;48.836;9.174;2023-03-31T03:16:42;11.70;99.90
48744;DHT22;34538;48.836;9.174;2023-03-31T03:19:17;11.70;99.90
48744;DHT22;34538;48.836;9.174;2023-03-31T03:21:44;11.70;99.90
48744;DHT22;34538;48.836;9.174;2023-03-31T03:24:12;11.60;99.90
48744;DHT22;34538;48.836;9.174;2023-03-31T03:26:40;11.60;99.90
48744;DHT22;34538;48.836;9.174;2023-03-31T03:29:08;11.60;99.90
48744;DHT22;34538;48.836;9.174;2023-03-31T03:31:36;11.60;99.90
48744;DHT22;34538;48.836;9.174;2023-03-31T03:34:03;11.60;99.90
48744;DHT22;34538;48.836;9.174;2023-03-31T03:36:31;11.50;99.90
48744;DHT22;34538;48.836;9.174;2023-03-31T03:38:58;11.40;99.90
48744;DHT22;34538;48.836;9.174;2023-03-31T03:41:25;11.40;99.90
48744;DHT22;34538;48.836;9.174;2023-03-31T03:43:52;11.30;99.90
48744;DHT22;34538;48.836;9.174;2023-03-31T03:46:20;11.30;99.90
48744;DHT22;34538;48.836;9.174;2023-03-31T03:48:46;11.30;99.90
48744;DHT22;34538;48.836;9.174;2023-03-31T03:51:13;11.30;99.90
48744;DHT22;34538;48.836;9.174;2023-03-31T03:53:40;11.30;99.90
48744;DHT22;34538;48.836;9.174;2023-03-31T03:56:07;11.30;99.90
48744;DHT22;34538;48.836;9.174;2023-03-31T03:58:34;11.30;99.90
48744;DHT22;34538;48.836;9.174;2023-03-31T04:01:01;11.30;99.90
48744;DHT22;34538;48.836;9.174;2023-03-31T04:03:30;11.30;99.90
48744;DHT22;34538;48.836;9.174;2023-03-31T04:05:57;11.30;99.90
48744;DHT22;34538;48.836;9.174;2023-03-31T04:08:24;11.30;99.90
48744;DHT22;34538;48.836;9.174;2023-03-31T04:10:52;11.20;99.90
48744;DHT22;34538;48.836;9.174;2023-03-31T04:13:18;11.20;99.90
48744;DHT22;34538;48.836;9.174;2023-03-31T04:15:46;11.20;99.90
48744;DHT22;34538;48.836;9.174;2023-03-31T04:18:13;11.10;99.90
48744;DHT22;34538;48.836;9.174;2023-03-31T04:20:49;11.00;99.90
48744;DHT22;34538;48.836;9.174;2023-03-31T04:23:27;10.90;99.90
48744;DHT22;34538;48.836;9.174;2023-03-31T04:25:53;10.90;99.90
48744;DHT22;34538;48.836;9.174;2023-03-31T04:28:20;10.90;99.90
48744;DHT22;34538;48.836;9.174;2023-03-31T04:30:47;10.80;99.90
48744;DHT22;34538;48.836;9.174;2023-03-31T04:33:14;10.90;99.90
48744;DHT22;34538;48.836;9.174;2023-03-31T04:35:41;10.80;99.90
48744;DHT22;34538;48.836;9.174;2023-03-31T04:38:15;10.90;99.90
48744;DHT22;34538;48.836;9.174;2023-03-31T04:40:44;10.90;99.90
48744;DHT22;34538;48.836;9.174;2023-03-31T04:43:12;10.90;99.90
48744;DHT22;34538;48.836;9.174;2023-03-31T04:45:39;10.90;99.90
48744;DHT22;34538;48.836;9.174;2023-03-31T04:48:06;10.90;99.90
48744;DHT22;34538;48.836;9.174;2023-03-31T04:50:33;10.90;99.90
48744;DHT22;34538;48.836;9.174;2023-03-31T04:53:01;11.00;99.90
48744;DHT22;34538;48.836;9.174;2023-03-31T04:55:29;10.90;99.90
48744;DHT22;34538;48.836;9.174;2023-03-31T04:57:56;11.00;99.90
48744;DHT22;34538;48.836;9.174;2023-03-31T05:00:23;11.00;99.90
48744;DHT22;34538;48.836;9.174;2023-03-31T05:02:51;11.00;99.90
48744;DHT22;34538;48.836;9.174;2023-03-31T05:05:18;11.00;99.90
48744;DHT22;34538;48.836;9.174;2023-03-31T05:07:45;11.10;99.90
48744;DHT22;34538;48.836;9.174;2023-03-31T05:10:11;11.10;99.90
48744;DHT22;34538;48.836;9.174;2023-03-31T05:12:40;11.10;99.90
48744;DHT22;34538;48.836;9.174;2023-03-31T05:15:07;11.20;99.90
48744;DHT22;34538;48.836;9.174;2023-03-31T05:17:34;11.20;99.90
48744;DHT22;34538;48.836;9.174;2023-03-31T05:20:03;11.20;99.90
48744;DHT22;34538;48.836;9.174;2023-03-31T05:22:34;11.10;99.90
48744;DHT22;34538;48.836;9.174;2023-03-31T05:25:01;11.10;99.90
48744;DHT22;34538;48.836;9.174;2023-03-31T05:27:29;11.00;99.90
48744;DHT22;34538;48.836;9.174;2023-03-31T05:29:57;11.00;99.90
48744;DHT22;34538;48.836;9.174;2023-03-31T05:32:24;10.90;99.90
48744;DHT22;34538;48.836;9.174;2023-03-31T05:34:52;10.90;99.90
48744;DHT22;34538;48.836;9.174;2023-03-31T05:37:22;10.70;99.90
48744;DHT22;34538;48.836;9.174;2023-03-31T05:39:49;10.60;99.90
48744;DHT22;34538;48.836;9.174;2023-03-31T05:42:16;10.60;99.90
48744;DHT22;34538;48.836;9.174;2023-03-31T05:44:44;10.40;99.90
48744;DHT22;34538;48.836;9.174;2023-03-31T05:47:12;10.40;99.90
48744;DHT22;34538;48.836;9.174;2023-03-31T05:49:39;10.30;99.90
48744;DHT22;34538;48.836;9.174;2023-03-31T05:52:06;10.30;99.90
48744;DHT22;34538;48.836;9.174;2023-03-31T05:54:33;10.20;99.90
48744;DHT22;34538;48.836;9.174;2023-03-31T05:57:00;10.20;99.90
48744;DHT22;34538;48.836;9.174;2023-03-31T05:59:27;10.10;99.90
48744;DHT22;34538;48.836;9.174;2023-03-31T06:01:54;10.10;99.90
48744;DHT22;34538;48.836;9.174;2023-03-31T06:04:22;10.10;99.90
48744;DHT22;34538;48.836;9.174;2023-03-31T06:06:49;10.00;99.90
48744;DHT22;34538;48.836;9.174;2023-03-31T06:09:17;10.10;99.90
48744;DHT22;34538;48.836;9.174;2023-03-31T06:11:44;10.00;99.90
48744;DHT22;34538;48.836;9.174;2023-03-31T06:14:12;10.00;99.90
48744;DHT22;34538;48.836;9.174;2023-03-31T06:16:39;10.00;99.90
48744;DHT22;34538;48.836;9.174;2023-03-31T06:19:06;10.00;99.90
48744;DHT22;34538;48.836;9.174;2023-03-31T06:21:34;10.00;99.90
48744;DHT22;34538;48.836;9.174;2023-03-31T06:24:01;10.00;99.90
48744;DHT22;34538;48.836;9.174;2023-03-31T06:26:28;10.00;99.90
48744;DHT22;34538;48.836;9.174;2023-03-31T06:28:55;10.00;99.90
48744;DHT22;34538;48.836;9.174;2023-03-31T06:31:23;10.00;99.90
48744;DHT22;34538;48.836;9.174;2023-03-31T06:33:51;10.00;99.90
48744;DHT22;34538;48.836;9.174;2023-03-31T06:36:19;10.00;99.90
48744;DHT22;34538;48.836;9.174;2023-03-31T06:38:48;10.00;99.90
48744;DHT22;34538;48.836;9.174;2023-03-31T06:41:18;10.00;99.90
48744;DHT22;34538;48.836;9.174;2023-03-31T06:43:47;10.00;99.90
48744;DHT22;34538;48.836;9.174;2023-03-31T06:46:14;10.00;99.90
48744;DHT22;34538;48.836;9.174;2023-03-31T06:48:41;10.00;99.90
48744;DHT22;34538;48.836;9.174;2023-03-31T06:51:08;10.00;99.90
48744;DHT22;34538;48.836;9.174;2023-03-31T06:53:35;10.00;99.90
48744;DHT22;34538;48.836;9.174;2023-03-31T06:56:04;10.00;99.90
48744;DHT22;34538;48.836;9.174;2023-03-31T06:58:32;10.10;99.90
48744;DHT22;34538;48.836;9.174;2023-03-31T07:01:01;10.10;99.90
48744;DHT22;34538;48.836;9.174;2023-03-31T07:03:28;10.00;99.90
48744;DHT22;34538;48.836;9.174;2023-03-31T07:05:55;10.00;99.90
48744;DHT22;34538;48.836;9.174;2023-03-31T07:08:22;10.00;99.90
48744;DHT22;34538;48.836;9.174;2023-03-31T07:10:54;10.00;99.90
48744;DHT22;34538;48.836;9.174;2023-03-31T07:13:25;10.00;99.90
48744;DHT22;34538;48.836;9.174;2023-03-31T07:15:53;10.00;99.90
48744;DHT22;34538;48.836;9.174;2023-03-31T07:18:20;10.00;99.90
48744;DHT22;34538;48.836;9.174;2023-03-31T07:20:50;10.10;99.90
48744;DHT22;34538;48.836;9.174;2023-03-31T07:23:18;10.10;99.90
48744;DHT22;34538;48.836;9.174;2023-03-31T07:25:45;10.10;99.90
48744;DHT22;34538;48.836;9.174;2023-03-31T07:28:12;10.10;99.90
48744;DHT22;34538;48.836;9.174;2023-03-31T07:30:41;10.10;99.90
48744;DHT22;34538;48.836;9.174;2023-03-31T07:33:10;10.20;99.90
48744;DHT22;34538;48.836;9.174;2023-03-31T07:35:38;10.20;99.90
48744;DHT22;34538;48.836;9.174;2023-03-31T07:38:06;10.20;99.90
48744;DHT22;34538;48.836;9.174;2023-03-31T07:40:33;10.30;99.90
48744;DHT22;34538;48.836;9.174;2023-03-31T07:42:59;10.30;99.90
48744;DHT22;34538;48.836;9.174;2023-03-31T07:45:26;10.30;99.90
48744;DHT22;34538;48.836;9.174;2023-03-31T07:47:55;10.30;99.90
48744;DHT22;34538;48.836;9.174;2023-03-31T07:50:22;10.40;99.90
48744;DHT22;34538;48.836;9.174;2023-03-31T07:52:51;10.50;99.90
48744;DHT22;34538;48.836;9.174;2023-03-31T07:55:18;10.60;99.90
48744;DHT22;34538;48.836;9.174;2023-03-31T07:57:45;10.60;99.90
48744;DHT22;34538;48.836;9.174;2023-03-31T08:00:14;10.70;99.90
48744;DHT22;34538;48.836;9.174;2023-03-31T08:02:41;10.80;99.90
48744;DHT22;34538;48.836;9.174;2023-03-31T08:05:10;10.90;99.90
48744;DHT22;34538;48.836;9.174;2023-03-31T08:07:40;11.00;99.90
48744;DHT22;34538;48.836;9.174;2023-03-31T08:10:16;11.10;99.90
48744;DHT22;34538;48.836;9.174;2023-03-31T08:12:43;11.20;99.90
48744;DHT22;34538;48.836;9.174;2023-03-31T08:15:11;11.40;99.90
48744;DHT22;34538;48.836;9.174;2023-03-31T08:17:38;11.50;99.90
48744;DHT22;34538;48.836;9.174;2023-03-31T08:20:06;11.60;99.90
48744;DHT22;34538;48.836;9.174;2023-03-31T08:22:36;11.70;99.90
48744;DHT22;34538;48.836;9.174;2023-03-31T08:25:04;11.80;99.90
48744;DHT22;34538;48.836;9.174;2023-03-31T08:27:33;11.90;99.90
48744;DHT22;34538;48.836;9.174;2023-03-31T08:30:00;12.00;99.90
48744;DHT22;34538;48.836;9.174;2023-03-31T08:32:30;12.10;99.90
48744;DHT22;34538;48.836;9.174;2023-03-31T08:34:57;12.20;99.90
48744;DHT22;34538;48.836;9.174;2023-03-31T08:37:24;12.30;99.90
48744;DHT22;34538;48.836;9.174;2023-03-31T08:39:54;12.40;99.90
48744;DHT22;34538;48.836;9.174;2023-03-31T08:42:24;12.60;99.90
48744;DHT22;34538;48.836;9.174;2023-03-31T08:44:59;12.60;99.90
48744;DHT22;34538;48.836;9.174;2023-03-31T08:47:29;12.70;99.90
48744;DHT22;34538;48.836;9.174;2023-03-31T08:49:59;12.80;99.90
48744;DHT22;34538;48.836;9.174;2023-03-31T08:52:29;12.90;99.90
48744;DHT22;34538;48.836;9.174;2023-03-31T08:55:01;13.00;99.90
48744;DHT22;34538;48.836;9.174;2023-03-31T08:57:32;13.10;99.90
48744;DHT22;34538;48.836;9.174;2023-03-31T09:00:04;13.20;99.90
48744;DHT22;34538;48.836;9.174;2023-03-31T09:02:39;13.30;99.90
48744;DHT22;34538;48.836;9.174;2023-03-31T09:05:34;13.40;99.90
48744;DHT22;34538;48.836;9.174;2023-03-31T09:08:08;13.50;99.90
48744;DHT22;34538;48.836;9.174;2023-03-31T09:10:44;13.70;99.90
48744;DHT22;34538;48.836;9.174;2023-03-31T09:13:35;13.80;99.90
48744;DHT22;34538;48.836;9.174;2023-03-31T09:16:11;14.00;99.90
48744;DHT22;34538;48.836;9.174;2023-03-31T09:18:40;14.20;99.90
48744;DHT22;34538;48.836;9.174;2023-03-31T09:21:15;14.30;99.90
48744;DHT22;34538;48.836;9.174;2023-03-31T09:23:45;14.40;99.90
48744;DHT22;34538;48.836;9.174;2023-03-31T09:26:22;14.50;99.90
48744;DHT22;34538;48.836;9.174;2023-03-31T09:28:52;14.60;99.90
48744;DHT22;34538;48.836;9.174;2023-03-31T09:31:21;14.80;99.90
48744;DHT22;34538;48.836;9.174;2023-03-31T09:33:53;14.90;99.90
48744;DHT22;34538;48.836;9.174;2023-03-31T09:36:21;14.90;99.90
48744;DHT22;34538;48.836;9.174;2023-03-31T09:38:49;15.00;99.90
48744;DHT22;34538;48.836;9.174;2023-03-31T09:41:18;15.10;99.90
48744;DHT22;34538;48.836;9.174;2023-03-31T09:43:46;15.20;99.90
48744;DHT22;34538;48.836;9.174;2023-03-31T09:46:20;15.20;99.90
48744;DHT22;34538;48.836;9.174;2023-03-31T09:48:57;15.10;99.90
48744;DHT22;34538;48.836;9.174;2023-03-31T09:51:28;15.10;99.90
48744;DHT22;34538;48.836;9.174;2023-03-31T09:54:01;15.10;99.90
48744;DHT22;34538;48.836;9.174;2023-03-31T09:56:44;15.10;99.90
48744;DHT22;34538;48.836;9.174;2023-03-31T09:59:15;15.10;99.90
48744;DHT22;34538;48.836;9.174;2023-03-31T10:01:44;15.20;99.90
48744;DHT22;34538;48.836;9.174;2023-03-31T10:04:19;15.30;99.90
48744;DHT22;34538;48.836;9.174;2023-03-31T10:06:47;15.30;99.90
48744;DHT22;34538;48.836;9.174;2023-03-31T10:09:15;15.30;99.90
48744;DHT22;34538;48.836;9.174;2023-03-31T10:11:57;15.30;99.90
48744;DHT22;34538;48.836;9.174;2023-03-31T10:14:32;15.40;99.90
48744;DHT22;34538;48.836;9.174;2023-03-31T10:17:02;15.50;99.90
48744;DHT22;34538;48.836;9.174;2023-03-31T10:19:32;15.60;99.90
48744;DHT22;34538;48.836;9.174;2023-03-31T10:22:01;15.80;99.90
48744;DHT22;34538;48.836;9.174;2023-03-31T10:24:36;15.90;99.90
48744;DHT22;34538;48.836;9.174;2023-03-31T10:27:10;16.10;99.90
48744;DHT22;34538;48.836;9.174;2023-03-31T10:29:39;16.20;99.90
48744;DHT22;34538;48.836;9.174;2023-03-31T10:32:10;16.40;99.90
48744;DHT22;34538;48.836;9.174;2023-03-31T10:34:42;16.40;99.90
48744;DHT22;34538;48.836;9.174;2023-03-31T10:37:13;16.50;99.90
48744;DHT22;34538;48.836;9.174;2023-03-31T10:39:42;16.60;99.90
48744;DHT22;34538;48.836;9.174;2023-03-31T10:42:18;16.70;99.90
48744;DHT22;34538;48.836;9.174;2023-03-31T10:44:46;16.80;99.90
48744;DHT22;34538;48.836;9.174;2023-03-31T10:47:18;16.80;99.90
48744;DHT22;34538;48.836;9.174;2023-03-31T10:49:48;16.70;99.80
48744;DHT22;34538;48.836;9.174;2023-03-31T10:52:18;16.60;99.90
48744;DHT22;34538;48.836;9.174;2023-03-31T10:54:47;16.50;99.90
48744;DHT22;34538;48.836;9.174;2023-03-31T10:57:17;16.40;99.90
48744;DHT22;34538;48.836;9.174;2023-03-31T11:00:08;16.40;99.90
48744;DHT22;34538;48.836;9.174;2023-03-31T11:03:22;16.40;99.40
48744;DHT22;34538;48.836;9.174;2023-03-31T11:05:59;16.40;99.90
48744;DHT22;34538;48.836;9.174;2023-03-31T11:08:38;16.50;99.90
48744;DHT22;34538;48.836;9.174;2023-03-31T11:11:17;16.40;99.40
48744;DHT22;34538;48.836;9.174;2023-03-31T11:13:53;16.30;99.40
48744;DHT22;34538;48.836;9.174;2023-03-31T11:16:29;16.20;99.90
48744;DHT22;34538;48.836;9.174;2023-03-31T11:19:06;16.10;99.90
48744;DHT22;34538;48.836;9.174;2023-03-31T11:21:45;15.90;99.90
48744;DHT22;34538;48.836;9.174;2023-03-31T11:24:25;15.40;99.90
48744;DHT22;34538;48.836;9.174;2023-03-31T11:26:55;14.60;99.90
48744;DHT22;34538;48.836;9.174;2023-03-31T11:29:32;13.60;99.90
48744;DHT22;34538;48.836;9.174;2023-03-31T11:35:05;12.10;99.90
48744;DHT22;34538;48.836;9.174;2023-03-31T11:37:41;11.50;99.90
48744;DHT22;34538;48.836;9.174;2023-03-31T11:40:29;11.10;99.90
48744;DHT22;34538;48.836;9.174;2023-03-31T11:43:00;10.90;99.90
48744;DHT22;34538;48.836;9.174;2023-03-31T11:45:33;10.60;99.90
48744;DHT22;34538;48.836;9.174;2023-03-31T11:48:09;10.50;99.90
48744;DHT22;34538;48.836;9.174;2023-03-31T11:50:40;10.50;99.90
48744;DHT22;34538;48.836;9.174;2023-03-31T11:53:14;10.50;99.90
48744;DHT22;34538;48.836;9.174;2023-03-31T11:55:42;10.60;99.90
48744;DHT22;34538;48.836;9.174;2023-03-31T11:58:14;10.60;99.90
48744;DHT22;34538;48.836;9.174;2023-03-31T12:00:47;10.70;99.90
48744;DHT22;34538;48.836;9.174;2023-03-31T12:03:22;10.70;99.90
48744;DHT22;34538;48.836;9.174;2023-03-31T12:05:52;10.80;99.90
48744;DHT22;34538;48.836;9.174;2023-03-31T12:08:25;10.80;99.90
48744;DHT22;34538;48.836;9.174;2023-03-31T12:10:58;10.90;99.90
48744;DHT22;34538;48.836;9.174;2023-03-31T12:13:35;11.10;99.90
48744;DHT22;34538;48.836;9.174;2023-03-31T12:16:10;11.20;99.90
48744;DHT22;34538;48.836;9.174;2023-03-31T12:18:40;11.40;99.90
48744;DHT22;34538;48.836;9.174;2023-03-31T12:21:09;11.60;99.90
48744;DHT22;34538;48.836;9.174;2023-03-31T12:23:40;11.70;99.90
48744;DHT22;34538;48.836;9.174;2023-03-31T12:26:17;11.90;99.90
48744;DHT22;34538;48.836;9.174;2023-03-31T12:28:50;12.00;99.90
48744;DHT22;34538;48.836;9.174;2023-03-31T12:31:20;12.20;99.90
48744;DHT22;34538;48.836;9.174;2023-03-31T12:33:53;12.30;99.90
48744;DHT22;34538;48.836;9.174;2023-03-31T12:36:32;12.50;99.90
48744;DHT22;34538;48.836;9.174;2023-03-31T12:39:12;12.60;99.90
48744;DHT22;34538;48.836;9.174;2023-03-31T12:41:53;12.80;99.90
48744;DHT22;34538;48.836;9.174;2023-03-31T12:44:32;13.10;99.90
48744;DHT22;34538;48.836;9.174;2023-03-31T12:47:30;13.20;99.90
48744;DHT22;34538;48.836;9.174;2023-03-31T12:50:16;13.30;99.90
48744;DHT22;34538;48.836;9.174;2023-03-31T12:52:51;13.40;99.90
48744;DHT22;34538;48.836;9.174;2023-03-31T12:55:35;13.60;99.90
48744;DHT22;34538;48.836;9.174;2023-03-31T12:58:36;13.70;99.90
48744;DHT22;34538;48.836;9.174;2023-03-31T13:01:06;13.90;99.90
48744;DHT22;34538;48.836;9.174;2023-03-31T13:03:42;14.10;99.90
48744;DHT22;34538;48.836;9.174;2023-03-31T13:09:40;14.50;99.90
48744;DHT22;34538;48.836;9.174;2023-03-31T13:12:11;14.70;99.90
48744;DHT22;34538;48.836;9.174;2023-03-31T13:14:38;14.80;99.90
48744;DHT22;34538;48.836;9.174;2023-03-31T13:17:19;14.80;99.90
48744;DHT22;34538;48.836;9.174;2023-03-31T13:19:48;14.70;99.90
48744;DHT22;34538;48.836;9.174;2023-03-31T13:22:30;14.60;99.90
48744;DHT22;34538;48.836;9.174;2023-03-31T13:25:37;14.40;99.90
48744;DHT22;34538;48.836;9.174;2023-03-31T13:28:27;13.90;99.90
48744;DHT22;34538;48.836;9.174;2023-03-31T13:30:58;13.40;99.90
48744;DHT22;34538;48.836;9.174;2023-03-31T13:33:33;13.00;99.90
48744;DHT22;34538;48.836;9.174;2023-03-31T13:36:42;12.80;99.90
48744;DHT22;34538;48.836;9.174;2023-03-31T13:42:40;12.60;99.90
48744;DHT22;34538;48.836;9.174;2023-03-31T13:45:24;12.60;99.90
48744;DHT22;34538;48.836;9.174;2023-03-31T13:48:08;12.50;99.90
48744;DHT22;34538;48.836;9.174;2023-03-31T13:50:55;12.50;99.90
48744;DHT22;34538;48.836;9.174;2023-03-31T13:53:35;12.30;99.90
48744;DHT22;34538;48.836;9.174;2023-03-31T13:56:22;12.20;99.90
48744;DHT22;34538;48.836;9.174;2023-03-31T13:59:17;12.10;99.90
48744;DHT22;34538;48.836;9.174;2023-03-31T14:02:02;12.00;99.90
48744;DHT22;34538;48.836;9.174;2023-03-31T14:07:48;11.70;99.90
48744;DHT22;34538;48.836;9.174;2023-03-31T14:10:24;11.50;99.90
48744;DHT22;34538;48.836;9.174;2023-03-31T14:13:02;11.40;99.90
48744;DHT22;34538;48.836;9.174;2023-03-31T14:15:31;11.40;99.90
48744;DHT22;34538;48.836;9.174;2023-03-31T14:17:59;11.50;99.90
48744;DHT22;34538;48.836;9.174;2023-03-31T14:20:32;11.70;99.90
48744;DHT22;34538;48.836;9.174;2023-03-31T14:23:13;11.90;99.90
48744;DHT22;34538;48.836;9.174;2023-03-31T14:25:48;12.20;99.90
48744;DHT22;34538;48.836;9.174;2023-03-31T14:28:43;12.40;99.90
48744;DHT22;34538;48.836;9.174;2023-03-31T14:31:18;12.60;99.90
48744;DHT22;34538;48.836;9.174;2023-03-31T14:34:01;12.80;99.90
48744;DHT22;34538;48.836;9.174;2023-03-31T14:36:37;12.80;99.90
48744;DHT22;34538;48.836;9.174;2023-03-31T14:39:09;12.90;99.90
48744;DHT22;34538;48.836;9.174;2023-03-31T14:41:37;13.00;99.90
48744;DHT22;34538;48.836;9.174;2023-03-31T14:44:06;13.10;99.90
48744;DHT22;34538;48.836;9.174;2023-03-31T14:46:37;13.20;99.90
48744;DHT22;34538;48.836;9.174;2023-03-31T14:49:17;13.20;99.90
48744;DHT22;34538;48.836;9.174;2023-03-31T14:51:45;13.30;99.90
48744;DHT22;34538;48.836;9.174;2023-03-31T14:54:15;13.40;99.90
48744;DHT22;34538;48.836;9.174;2023-03-31T14:56:43;13.50;99.90
48744;DHT22;34538;48.836;9.174;2023-03-31T14:59:17;13.50;99.90
48744;DHT22;34538;48.836;9.174;2023-03-31T15:01:48;13.50;99.90
48744;DHT22;34538;48.836;9.174;2023-03-31T15:04:19;13.50;99.90
48744;DHT22;34538;48.836;9.174;2023-03-31T15:06:48;13.50;99.90
48744;DHT22;34538;48.836;9.174;2023-03-31T15:09:20;13.50;99.90
48744;DHT22;34538;48.836;9.174;2023-03-31T15:11:53;13.50;99.90
48744;DHT22;34538;48.836;9.174;2023-03-31T15:14:22;13.50;99.90
48744;DHT22;34538;48.836;9.174;2023-03-31T15:16:50;13.60;99.90
48744;DHT22;34538;48.836;9.174;2023-03-31T15:19:19;13.60;99.90
48744;DHT22;34538;48.836;9.174;2023-03-31T15:21:53;13.70;99.90
48744;DHT22;34538;48.836;9.174;2023-03-31T15:24:21;13.70;99.90
48744;DHT22;34538;48.836;9.174;2023-03-31T15:26:51;13.70;99.90
48744;DHT22;34538;48.836;9.174;2023-03-31T15:29:23;13.80;99.90
48744;DHT22;34538;48.836;9.174;2023-03-31T15:31:56;13.80;99.90
48744;DHT22;34538;48.836;9.174;2023-03-31T15:34:26;13.80;99.90
48744;DHT22;34538;48.836;9.174;2023-03-31T15:36:55;13.80;99.90
48744;DHT22;34538;48.836;9.174;2023-03-31T15:39:23;13.90;99.90
48744;DHT22;34538;48.836;9.174;2023-03-31T15:41:51;13.90;99.90
48744;DHT22;34538;48.836;9.174;2023-03-31T15:44:28;13.90;99.90
48744;DHT22;34538;48.836;9.174;2023-03-31T15:47:01;14.00;99.90
48744;DHT22;34538;48.836;9.174;2023-03-31T15:49:31;13.90;99.90
48744;DHT22;34538;48.836;9.174;2023-03-31T15:51:58;13.90;99.90
48744;DHT22;34538;48.836;9.174;2023-03-31T15:54:37;13.90;99.90
48744;DHT22;34538;48.836;9.174;2023-03-31T15:57:06;13.90;99.90
48744;DHT22;34538;48.836;9.174;2023-03-31T15:59:43;13.80;99.90
48744;DHT22;34538;48.836;9.174;2023-03-31T16:02:16;13.80;99.90
48744;DHT22;34538;48.836;9.174;2023-03-31T16:04:47;13.80;99.90
48744;DHT22;34538;48.836;9.174;2023-03-31T16:07:18;13.60;99.90
48744;DHT22;34538;48.836;9.174;2023-03-31T16:09:48;13.50;99.90
48744;DHT22;34538;48.836;9.174;2023-03-31T16:12:19;13.50;99.90
48744;DHT22;34538;48.836;9.174;2023-03-31T16:14:49;13.40;99.90
48744;DHT22;34538;48.836;9.174;2023-03-31T16:17:26;13.30;99.90
48744;DHT22;34538;48.836;9.174;2023-03-31T16:19:58;13.30;99.90
48744;DHT22;34538;48.836;9.174;2023-03-31T16:22:33;13.20;99.90